sensor_id;sensor_type;location;lat;lon;timestamp;P1;durP1;ratioP1;P2;durP2;ratioP2
67819;SDS011;54618;52.018;5.576;2023-04-03T00:01:10;3.70;;;1.13;;
67819;SDS011;54618;52.018;5.576;2023-04-03T00:03:36;3.13;;;1.02;;
67819;SDS011;54618;52.018;5.576;2023-04-03T00:06:02;3.15;;;1.05;;
67819;SDS011;54618;52.018;5.576;2023-04-03T00:08:28;2.72;;;1.00;;
67819;SDS011;54618;52.018;5.576;2023-04-03T00:10:55;4.90;;;1.10;;
67819;SDS011;54618;52.018;5.576;2023-04-03T00:13:22;3.17;;;0.80;;
67819;SDS011;54618;52.018;5.576;2023-04-03T00:15:48;2.88;;;0.90;;
67819;SDS011;54618;52.018;5.576;2023-04-03T00:18:13;2.30;;;0.90;;
67819;SDS011;54618;52.018;5.576;2023-04-03T00:20:39;2.28;;;0.80;;
67819;SDS011;54618;52.018;5.576;2023-04-03T00:23:04;2.60;;;1.00;;
67819;SDS011;54618;52.018;5.576;2023-04-03T00:25:30;2.67;;;0.90;;
67819;SDS011;54618;52.018;5.576;2023-04-03T00:27:55;3.03;;;0.88;;
67819;SDS011;54618;52.018;5.576;2023-04-03T00:30:21;2.90;;;0.95;;
67819;SDS011;54618;52.018;5.576;2023-04-03T00:32:48;1.95;;;0.70;;
67819;SDS011;54618;52.018;5.576;2023-04-03T00:35:14;3.35;;;1.00;;
67819;SDS011;54618;52.018;5.576;2023-04-03T00:37:41;2.05;;;0.95;;
67819;SDS011;54618;52.018;5.576;2023-04-03T00:40:07;2.83;;;0.98;;
67819;SDS011;54618;52.018;5.576;2023-04-03T00:42:34;2.30;;;0.65;;
67819;SDS011;54618;52.018;5.576;2023-04-03T00:47:26;3.25;;;1.08;;
67819;SDS011;54618;52.018;5.576;2023-04-03T00:49:53;1.77;;;0.80;;
67819;SDS011;54618;52.018;5.576;2023-04-03T00:52:19;2.40;;;0.88;;
67819;SDS011;54618;52.018;5.576;2023-04-03T00:54:48;2.25;;;0.90;;
67819;SDS011;54618;52.018;5.576;2023-04-03T00:57:17;3.72;;;1.00;;
67819;SDS011;54618;52.018;5.576;2023-04-03T00:59:44;1.70;;;0.75;;
67819;SDS011;54618;52.018;5.576;2023-04-03T01:02:15;2.80;;;0.90;;
67819;SDS011;54618;52.018;5.576;2023-04-03T01:04:42;2.35;;;0.80;;
67819;SDS011;54618;52.018;5.576;2023-04-03T01:07:15;1.30;;;0.63;;
67819;SDS011;54618;52.018;5.576;2023-04-03T01:09:43;2.67;;;0.80;;
67819;SDS011;54618;52.018;5.576;2023-04-03T01:12:16;1.73;;;0.70;;
67819;SDS011;54618;52.018;5.576;2023-04-03T01:14:47;2.10;;;0.75;;
67819;SDS011;54618;52.018;5.576;2023-04-03T01:17:24;3.45;;;0.90;;
67819;SDS011;54618;52.018;5.576;2023-04-03T01:19:57;2.28;;;0.80;;
67819;SDS011;54618;52.018;5.576;2023-04-03T01:22:39;1.92;;;0.70;;
67819;SDS011;54618;52.018;5.576;2023-04-03T01:25:08;2.78;;;1.00;;
67819;SDS011;54618;52.018;5.576;2023-04-03T01:27:34;2.08;;;0.70;;
67819;SDS011;54618;52.018;5.576;2023-04-03T01:30:00;2.55;;;0.80;;
67819;SDS011;54618;52.018;5.576;2023-04-03T01:32:25;2.33;;;0.70;;
67819;SDS011;54618;52.018;5.576;2023-04-03T01:34:51;1.63;;;0.70;;
67819;SDS011;54618;52.018;5.576;2023-04-03T01:37:16;1.52;;;0.73;;
67819;SDS011;54618;52.018;5.576;2023-04-03T01:39:42;1.92;;;0.70;;
67819;SDS011;54618;52.018;5.576;2023-04-03T01:42:07;1.85;;;0.70;;
67819;SDS011;54618;52.018;5.576;2023-04-03T01:44:33;1.33;;;0.73;;
67819;SDS011;54618;52.018;5.576;2023-04-03T01:46:59;1.50;;;0.70;;
67819;SDS011;54618;52.018;5.576;2023-04-03T01:49:25;1.80;;;0.73;;
67819;SDS011;54618;52.018;5.576;2023-04-03T01:51:50;2.20;;;0.90;;
67819;SDS011;54618;52.018;5.576;2023-04-03T01:54:16;1.80;;;0.63;;
67819;SDS011;54618;52.018;5.576;2023-04-03T01:56:41;1.75;;;0.70;;
67819;SDS011;54618;52.018;5.576;2023-04-03T01:59:07;2.33;;;0.80;;
67819;SDS011;54618;52.018;5.576;2023-04-03T02:01:32;1.95;;;0.70;;
67819;SDS011;54618;52.018;5.576;2023-04-03T02:03:58;2.55;;;0.60;;
67819;SDS011;54618;52.018;5.576;2023-04-03T02:06:23;2.08;;;0.80;;
67819;SDS011;54618;52.018;5.576;2023-04-03T02:08:50;2.63;;;0.65;;
67819;SDS011;54618;52.018;5.576;2023-04-03T02:11:15;1.75;;;0.80;;
67819;SDS011;54618;52.018;5.576;2023-04-03T02:13:41;1.85;;;0.70;;
67819;SDS011;54618;52.018;5.576;2023-04-03T02:16:07;1.52;;;0.68;;
67819;SDS011;54618;52.018;5.576;2023-04-03T02:18:34;2.13;;;0.88;;
67819;SDS011;54618;52.018;5.576;2023-04-03T02:21:00;1.92;;;0.60;;
67819;SDS011;54618;52.018;5.576;2023-04-03T02:23:26;2.28;;;0.75;;
67819;SDS011;54618;52.018;5.576;2023-04-03T02:25:51;1.35;;;0.70;;
67819;SDS011;54618;52.018;5.576;2023-04-03T02:28:17;1.40;;;0.70;;
67819;SDS011;54618;52.018;5.576;2023-04-03T02:30:42;2.17;;;0.73;;
67819;SDS011;54618;52.018;5.576;2023-04-03T02:33:08;1.80;;;0.60;;
67819;SDS011;54618;52.018;5.576;2023-04-03T02:35:33;1.35;;;0.50;;
67819;SDS011;54618;52.018;5.576;2023-04-03T02:37:59;1.95;;;0.70;;
67819;SDS011;54618;52.018;5.576;2023-04-03T02:40:24;1.38;;;0.60;;
67819;SDS011;54618;52.018;5.576;2023-04-03T02:42:50;2.20;;;0.80;;
67819;SDS011;54618;52.018;5.576;2023-04-03T02:45:15;2.72;;;0.80;;
67819;SDS011;54618;52.018;5.576;2023-04-03T02:47:41;1.65;;;0.75;;
67819;SDS011;54618;52.018;5.576;2023-04-03T02:50:06;2.30;;;0.80;;
67819;SDS011;54618;52.018;5.576;2023-04-03T02:52:32;1.80;;;0.70;;
67819;SDS011;54618;52.018;5.576;2023-04-03T02:54:58;1.50;;;0.73;;
67819;SDS011;54618;52.018;5.576;2023-04-03T02:57:23;3.15;;;0.70;;
67819;SDS011;54618;52.018;5.576;2023-04-03T02:59:49;2.25;;;0.68;;
67819;SDS011;54618;52.018;5.576;2023-04-03T03:02:14;1.38;;;0.60;;
67819;SDS011;54618;52.018;5.576;2023-04-03T03:04:40;1.48;;;0.63;;
67819;SDS011;54618;52.018;5.576;2023-04-03T03:07:06;1.13;;;0.52;;
67819;SDS011;54618;52.018;5.576;2023-04-03T03:09:31;2.38;;;0.68;;
67819;SDS011;54618;52.018;5.576;2023-04-03T03:11:58;2.60;;;0.65;;
67819;SDS011;54618;52.018;5.576;2023-04-03T03:14:23;1.35;;;0.63;;
67819;SDS011;54618;52.018;5.576;2023-04-03T03:16:49;1.52;;;0.50;;
67819;SDS011;54618;52.018;5.576;2023-04-03T03:19:15;2.03;;;0.52;;
67819;SDS011;54618;52.018;5.576;2023-04-03T03:21:40;1.70;;;0.65;;
67819;SDS011;54618;52.018;5.576;2023-04-03T03:24:06;2.22;;;0.80;;
67819;SDS011;54618;52.018;5.576;2023-04-03T03:26:32;2.20;;;0.70;;
67819;SDS011;54618;52.018;5.576;2023-04-03T03:28:57;2.17;;;0.80;;
67819;SDS011;54618;52.018;5.576;2023-04-03T03:31:23;1.73;;;0.70;;
67819;SDS011;54618;52.018;5.576;2023-04-03T03:33:48;1.77;;;0.68;;
67819;SDS011;54618;52.018;5.576;2023-04-03T03:36:14;1.60;;;0.60;;
67819;SDS011;54618;52.018;5.576;2023-04-03T03:38:40;1.25;;;0.60;;
67819;SDS011;54618;52.018;5.576;2023-04-03T03:41:05;1.65;;;0.70;;
67819;SDS011;54618;52.018;5.576;2023-04-03T03:43:31;0.93;;;0.50;;
67819;SDS011;54618;52.018;5.576;2023-04-03T03:45:56;1.13;;;0.50;;
67819;SDS011;54618;52.018;5.576;2023-04-03T03:48:22;1.67;;;0.70;;
67819;SDS011;54618;52.018;5.576;2023-04-03T03:50:48;3.17;;;0.80;;
67819;SDS011;54618;52.018;5.576;2023-04-03T03:53:14;1.23;;;0.63;;
67819;SDS011;54618;52.018;5.576;2023-04-03T03:55:40;2.05;;;0.80;;
67819;SDS011;54618;52.018;5.576;2023-04-03T03:58:05;1.52;;;0.60;;
67819;SDS011;54618;52.018;5.576;2023-04-03T04:00:31;0.85;;;0.55;;
67819;SDS011;54618;52.018;5.576;2023-04-03T04:02:57;1.13;;;0.50;;
67819;SDS011;54618;52.018;5.576;2023-04-03T04:05:22;2.13;;;0.75;;
67819;SDS011;54618;52.018;5.576;2023-04-03T04:07:48;1.30;;;0.60;;
67819;SDS011;54618;52.018;5.576;2023-04-03T04:10:14;1.45;;;0.63;;
67819;SDS011;54618;52.018;5.576;2023-04-03T04:12:40;1.27;;;0.60;;
67819;SDS011;54618;52.018;5.576;2023-04-03T04:15:05;1.38;;;0.50;;
67819;SDS011;54618;52.018;5.576;2023-04-03T04:17:31;0.93;;;0.50;;
67819;SDS011;54618;52.018;5.576;2023-04-03T04:19:57;1.33;;;0.60;;
67819;SDS011;54618;52.018;5.576;2023-04-03T04:22:22;1.70;;;0.70;;
67819;SDS011;54618;52.018;5.576;2023-04-03T04:24:48;0.93;;;0.57;;
67819;SDS011;54618;52.018;5.576;2023-04-03T04:27:13;1.02;;;0.60;;
67819;SDS011;54618;52.018;5.576;2023-04-03T04:29:40;1.00;;;0.50;;
67819;SDS011;54618;52.018;5.576;2023-04-03T04:32:06;1.13;;;0.60;;
67819;SDS011;54618;52.018;5.576;2023-04-03T04:34:31;2.05;;;0.60;;
67819;SDS011;54618;52.018;5.576;2023-04-03T04:36:57;2.20;;;0.60;;
67819;SDS011;54618;52.018;5.576;2023-04-03T04:39:22;1.58;;;0.60;;
67819;SDS011;54618;52.018;5.576;2023-04-03T04:41:48;1.70;;;0.65;;
67819;SDS011;54618;52.018;5.576;2023-04-03T04:44:14;1.35;;;0.50;;
67819;SDS011;54618;52.018;5.576;2023-04-03T04:46:40;1.83;;;0.52;;
67819;SDS011;54618;52.018;5.576;2023-04-03T04:49:05;1.13;;;0.50;;
67819;SDS011;54618;52.018;5.576;2023-04-03T04:51:31;1.83;;;0.50;;
67819;SDS011;54618;52.018;5.576;2023-04-03T04:53:56;1.65;;;0.60;;
67819;SDS011;54618;52.018;5.576;2023-04-03T04:56:22;1.02;;;0.50;;
67819;SDS011;54618;52.018;5.576;2023-04-03T04:58:47;1.30;;;0.60;;
67819;SDS011;54618;52.018;5.576;2023-04-03T05:01:13;1.45;;;0.60;;
67819;SDS011;54618;52.018;5.576;2023-04-03T05:03:39;1.10;;;0.60;;
67819;SDS011;54618;52.018;5.576;2023-04-03T05:06:05;2.40;;;0.60;;
67819;SDS011;54618;52.018;5.576;2023-04-03T05:08:31;1.33;;;0.57;;
67819;SDS011;54618;52.018;5.576;2023-04-03T05:10:56;2.35;;;0.65;;
67819;SDS011;54618;52.018;5.576;2023-04-03T05:13:22;0.85;;;0.43;;
67819;SDS011;54618;52.018;5.576;2023-04-03T05:15:48;0.90;;;0.50;;
67819;SDS011;54618;52.018;5.576;2023-04-03T05:18:14;1.35;;;0.60;;
67819;SDS011;54618;52.018;5.576;2023-04-03T05:20:39;1.15;;;0.57;;
67819;SDS011;54618;52.018;5.576;2023-04-03T05:23:05;1.80;;;0.63;;
67819;SDS011;54618;52.018;5.576;2023-04-03T05:25:31;1.08;;;0.38;;
67819;SDS011;54618;52.018;5.576;2023-04-03T05:27:56;0.98;;;0.55;;
67819;SDS011;54618;52.018;5.576;2023-04-03T05:30:22;1.45;;;0.60;;
67819;SDS011;54618;52.018;5.576;2023-04-03T05:32:48;0.90;;;0.50;;
67819;SDS011;54618;52.018;5.576;2023-04-03T05:35:14;1.35;;;0.57;;
67819;SDS011;54618;52.018;5.576;2023-04-03T05:37:39;1.48;;;0.50;;
67819;SDS011;54618;52.018;5.576;2023-04-03T05:40:05;0.95;;;0.60;;
67819;SDS011;54618;52.018;5.576;2023-04-03T05:42:32;2.08;;;0.73;;
67819;SDS011;54618;52.018;5.576;2023-04-03T05:44:57;0.52;;;0.40;;
67819;SDS011;54618;52.018;5.576;2023-04-03T05:47:23;1.27;;;0.52;;
67819;SDS011;54618;52.018;5.576;2023-04-03T05:49:49;1.05;;;0.50;;
67819;SDS011;54618;52.018;5.576;2023-04-03T05:52:20;1.73;;;0.60;;
67819;SDS011;54618;52.018;5.576;2023-04-03T05:54:46;1.52;;;0.68;;
67819;SDS011;54618;52.018;5.576;2023-04-03T05:57:13;1.60;;;0.50;;
67819;SDS011;54618;52.018;5.576;2023-04-03T05:59:42;1.60;;;0.50;;
67819;SDS011;54618;52.018;5.576;2023-04-03T06:02:12;1.48;;;0.50;;
67819;SDS011;54618;52.018;5.576;2023-04-03T06:07:04;1.35;;;0.60;;
67819;SDS011;54618;52.018;5.576;2023-04-03T06:09:30;0.90;;;0.50;;
67819;SDS011;54618;52.018;5.576;2023-04-03T06:11:56;1.63;;;0.60;;
67819;SDS011;54618;52.018;5.576;2023-04-03T06:14:23;1.42;;;0.52;;
67819;SDS011;54618;52.018;5.576;2023-04-03T06:16:50;0.77;;;0.45;;
67819;SDS011;54618;52.018;5.576;2023-04-03T06:19:16;1.02;;;0.50;;
67819;SDS011;54618;52.018;5.576;2023-04-03T06:21:42;1.20;;;0.60;;
67819;SDS011;54618;52.018;5.576;2023-04-03T06:24:09;0.90;;;0.65;;
67819;SDS011;54618;52.018;5.576;2023-04-03T06:26:37;1.10;;;0.60;;
67819;SDS011;54618;52.018;5.576;2023-04-03T06:29:02;0.98;;;0.40;;
67819;SDS011;54618;52.018;5.576;2023-04-03T06:31:28;0.93;;;0.60;;
67819;SDS011;54618;52.018;5.576;2023-04-03T06:33:53;1.20;;;0.50;;
67819;SDS011;54618;52.018;5.576;2023-04-03T06:36:20;0.95;;;0.57;;
67819;SDS011;54618;52.018;5.576;2023-04-03T06:38:46;1.38;;;0.80;;
67819;SDS011;54618;52.018;5.576;2023-04-03T06:41:12;1.73;;;0.60;;
67819;SDS011;54618;52.018;5.576;2023-04-03T06:43:37;1.05;;;0.47;;
67819;SDS011;54618;52.018;5.576;2023-04-03T06:46:03;1.10;;;0.52;;
67819;SDS011;54618;52.018;5.576;2023-04-03T06:48:29;1.40;;;0.45;;
67819;SDS011;54618;52.018;5.576;2023-04-03T06:50:54;1.05;;;0.43;;
67819;SDS011;54618;52.018;5.576;2023-04-03T06:53:20;1.33;;;0.52;;
67819;SDS011;54618;52.018;5.576;2023-04-03T06:55:46;1.48;;;0.55;;
67819;SDS011;54618;52.018;5.576;2023-04-03T06:58:12;0.90;;;0.60;;
67819;SDS011;54618;52.018;5.576;2023-04-03T07:00:40;1.60;;;0.60;;
67819;SDS011;54618;52.018;5.576;2023-04-03T07:03:05;1.75;;;0.52;;
67819;SDS011;54618;52.018;5.576;2023-04-03T07:05:31;1.17;;;0.47;;
67819;SDS011;54618;52.018;5.576;2023-04-03T07:07:57;1.88;;;0.60;;
67819;SDS011;54618;52.018;5.576;2023-04-03T07:10:22;0.82;;;0.50;;
67819;SDS011;54618;52.018;5.576;2023-04-03T07:12:48;1.05;;;0.50;;
67819;SDS011;54618;52.018;5.576;2023-04-03T07:15:14;1.10;;;0.40;;
67819;SDS011;54618;52.018;5.576;2023-04-03T07:17:40;1.20;;;0.50;;
67819;SDS011;54618;52.018;5.576;2023-04-03T07:20:06;1.25;;;0.50;;
67819;SDS011;54618;52.018;5.576;2023-04-03T07:22:32;1.85;;;0.68;;
67819;SDS011;54618;52.018;5.576;2023-04-03T07:24:57;1.10;;;0.50;;
67819;SDS011;54618;52.018;5.576;2023-04-03T07:27:24;1.00;;;0.50;;
67819;SDS011;54618;52.018;5.576;2023-04-03T07:29:50;1.08;;;0.50;;
67819;SDS011;54618;52.018;5.576;2023-04-03T07:32:15;1.13;;;0.60;;
67819;SDS011;54618;52.018;5.576;2023-04-03T07:34:42;1.98;;;0.60;;
67819;SDS011;54618;52.018;5.576;2023-04-03T07:37:08;1.42;;;0.60;;
67819;SDS011;54618;52.018;5.576;2023-04-03T07:39:34;3.60;;;0.60;;
67819;SDS011;54618;52.018;5.576;2023-04-03T07:41:59;1.30;;;0.60;;
67819;SDS011;54618;52.018;5.576;2023-04-03T07:44:25;1.50;;;0.50;;
67819;SDS011;54618;52.018;5.576;2023-04-03T07:46:51;2.00;;;0.60;;
67819;SDS011;54618;52.018;5.576;2023-04-03T07:49:17;1.00;;;0.50;;
67819;SDS011;54618;52.018;5.576;2023-04-03T07:51:48;1.10;;;0.50;;
67819;SDS011;54618;52.018;5.576;2023-04-03T07:54:13;2.08;;;0.50;;
67819;SDS011;54618;52.018;5.576;2023-04-03T07:56:40;1.83;;;0.60;;
67819;SDS011;54618;52.018;5.576;2023-04-03T07:59:07;1.27;;;0.50;;
67819;SDS011;54618;52.018;5.576;2023-04-03T08:01:33;1.88;;;0.68;;
67819;SDS011;54618;52.018;5.576;2023-04-03T08:03:59;1.25;;;0.60;;
67819;SDS011;54618;52.018;5.576;2023-04-03T08:06:25;2.83;;;0.60;;
67819;SDS011;54618;52.018;5.576;2023-04-03T08:08:51;1.58;;;0.50;;
67819;SDS011;54618;52.018;5.576;2023-04-03T08:11:16;1.05;;;0.52;;
67819;SDS011;54618;52.018;5.576;2023-04-03T08:13:43;1.20;;;0.52;;
67819;SDS011;54618;52.018;5.576;2023-04-03T08:16:13;1.38;;;0.60;;
67819;SDS011;54618;52.018;5.576;2023-04-03T08:18:42;1.48;;;0.60;;
67819;SDS011;54618;52.018;5.576;2023-04-03T08:21:09;1.67;;;0.60;;
67819;SDS011;54618;52.018;5.576;2023-04-03T08:23:35;1.40;;;0.52;;
67819;SDS011;54618;52.018;5.576;2023-04-03T08:26:11;1.02;;;0.50;;
67819;SDS011;54618;52.018;5.576;2023-04-03T08:28:38;0.45;;;0.40;;
67819;SDS011;54618;52.018;5.576;2023-04-03T08:31:05;1.60;;;0.50;;
67819;SDS011;54618;52.018;5.576;2023-04-03T08:33:35;2.58;;;0.60;;
67819;SDS011;54618;52.018;5.576;2023-04-03T08:36:03;2.22;;;0.60;;
67819;SDS011;54618;52.018;5.576;2023-04-03T08:38:29;2.00;;;0.57;;
67819;SDS011;54618;52.018;5.576;2023-04-03T08:41:02;3.53;;;0.57;;
67819;SDS011;54618;52.018;5.576;2023-04-03T08:49:47;1.40;;;0.52;;
67819;SDS011;54618;52.018;5.576;2023-04-03T08:52:59;0.98;;;0.47;;
67819;SDS011;54618;52.018;5.576;2023-04-03T08:55:07;1.80;;;0.60;;
67819;SDS011;54618;52.018;5.576;2023-04-03T08:57:44;1.52;;;0.60;;
67819;SDS011;54618;52.018;5.576;2023-04-03T09:00:23;2.50;;;0.60;;
67819;SDS011;54618;52.018;5.576;2023-04-03T09:02:51;1.15;;;0.50;;
67819;SDS011;54618;52.018;5.576;2023-04-03T09:07:59;1.30;;;0.57;;
67819;SDS011;54618;52.018;5.576;2023-04-03T09:13:01;6.53;;;0.60;;
67819;SDS011;54618;52.018;5.576;2023-04-03T09:15:37;0.80;;;0.32;;
67819;SDS011;54618;52.018;5.576;2023-04-03T09:18:04;0.98;;;0.40;;
67819;SDS011;54618;52.018;5.576;2023-04-03T09:26:23;2.92;;;0.57;;
67819;SDS011;54618;52.018;5.576;2023-04-03T09:28:54;1.75;;;0.50;;
67819;SDS011;54618;52.018;5.576;2023-04-03T09:31:26;1.43;;;0.50;;
67819;SDS011;54618;52.018;5.576;2023-04-03T09:34:01;4.13;;;0.60;;
67819;SDS011;54618;52.018;5.576;2023-04-03T09:39:48;2.65;;;0.63;;
67819;SDS011;54618;52.018;5.576;2023-04-03T09:44:53;2.70;;;0.50;;
67819;SDS011;54618;52.018;5.576;2023-04-03T09:55:22;2.08;;;0.47;;
67819;SDS011;54618;52.018;5.576;2023-04-03T09:58:03;2.00;;;0.50;;
67819;SDS011;54618;52.018;5.576;2023-04-03T10:02:58;0.85;;;0.50;;
67819;SDS011;54618;52.018;5.576;2023-04-03T10:08:27;2.60;;;0.63;;
67819;SDS011;54618;52.018;5.576;2023-04-03T10:11:12;1.63;;;0.50;;
67819;SDS011;54618;52.018;5.576;2023-04-03T10:16:18;0.80;;;0.40;;
67819;SDS011;54618;52.018;5.576;2023-04-03T10:21:48;1.63;;;0.50;;
67819;SDS011;54618;52.018;5.576;2023-04-03T10:26:57;2.63;;;0.45;;
67819;SDS011;54618;52.018;5.576;2023-04-03T10:29:46;0.93;;;0.40;;
67819;SDS011;54618;52.018;5.576;2023-04-03T10:35:43;1.30;;;0.60;;
67819;SDS011;54618;52.018;5.576;2023-04-03T10:38:22;1.02;;;0.50;;
67819;SDS011;54618;52.018;5.576;2023-04-03T10:41:16;1.90;;;0.50;;
67819;SDS011;54618;52.018;5.576;2023-04-03T10:44:14;2.08;;;0.50;;
67819;SDS011;54618;52.018;5.576;2023-04-03T10:46:43;1.60;;;0.40;;
67819;SDS011;54618;52.018;5.576;2023-04-03T10:51:49;1.45;;;0.50;;
67819;SDS011;54618;52.018;5.576;2023-04-03T10:54:25;2.50;;;0.40;;
67819;SDS011;54618;52.018;5.576;2023-04-03T10:57:01;2.67;;;0.50;;
67819;SDS011;54618;52.018;5.576;2023-04-03T10:59:39;1.23;;;0.40;;
67819;SDS011;54618;52.018;5.576;2023-04-03T11:04:50;1.50;;;0.45;;
67819;SDS011;54618;52.018;5.576;2023-04-03T11:09:48;0.82;;;0.25;;
67819;SDS011;54618;52.018;5.576;2023-04-03T11:12:21;1.73;;;0.40;;
67819;SDS011;54618;52.018;5.576;2023-04-03T11:15:01;0.77;;;0.43;;
67819;SDS011;54618;52.018;5.576;2023-04-03T11:17:31;1.20;;;0.38;;
67819;SDS011;54618;52.018;5.576;2023-04-03T11:20:20;1.67;;;0.50;;
67819;SDS011;54618;52.018;5.576;2023-04-03T11:23:01;2.35;;;0.57;;
67819;SDS011;54618;52.018;5.576;2023-04-03T11:25:29;2.55;;;0.43;;
67819;SDS011;54618;52.018;5.576;2023-04-03T11:28:00;2.42;;;0.43;;
67819;SDS011;54618;52.018;5.576;2023-04-03T11:30:53;1.70;;;0.43;;
67819;SDS011;54618;52.018;5.576;2023-04-03T11:36:20;0.90;;;0.40;;
67819;SDS011;54618;52.018;5.576;2023-04-03T11:38:49;0.93;;;0.40;;
67819;SDS011;54618;52.018;5.576;2023-04-03T11:41:25;1.20;;;0.40;;
67819;SDS011;54618;52.018;5.576;2023-04-03T11:43:58;4.32;;;0.47;;
67819;SDS011;54618;52.018;5.576;2023-04-03T12:08:25;1.83;;;0.50;;
67819;SDS011;54618;52.018;5.576;2023-04-03T12:13:39;0.80;;;0.40;;
67819;SDS011;54618;52.018;5.576;2023-04-03T12:19:47;1.00;;;0.50;;
67819;SDS011;54618;52.018;5.576;2023-04-03T12:22:14;2.25;;;0.47;;
67819;SDS011;54618;52.018;5.576;2023-04-03T12:24:45;1.60;;;0.50;;
67819;SDS011;54618;52.018;5.576;2023-04-03T12:27:16;2.33;;;0.55;;
67819;SDS011;54618;52.018;5.576;2023-04-03T12:29:53;2.72;;;0.57;;
67819;SDS011;54618;52.018;5.576;2023-04-03T12:32:43;1.30;;;0.40;;
67819;SDS011;54618;52.018;5.576;2023-04-03T12:35:29;1.58;;;0.40;;
67819;SDS011;54618;52.018;5.576;2023-04-03T12:38:22;1.33;;;0.47;;
67819;SDS011;54618;52.018;5.576;2023-04-03T12:40:53;0.67;;;0.30;;
67819;SDS011;54618;52.018;5.576;2023-04-03T12:46:24;1.30;;;0.40;;
67819;SDS011;54618;52.018;5.576;2023-04-03T12:48:58;1.30;;;0.40;;
67819;SDS011;54618;52.018;5.576;2023-04-03T12:51:34;1.75;;;0.50;;
67819;SDS011;54618;52.018;5.576;2023-04-03T12:54:04;1.05;;;0.40;;
67819;SDS011;54618;52.018;5.576;2023-04-03T12:57:08;2.38;;;0.40;;
67819;SDS011;54618;52.018;5.576;2023-04-03T12:59:41;1.10;;;0.47;;
67819;SDS011;54618;52.018;5.576;2023-04-03T13:02:25;0.98;;;0.40;;
67819;SDS011;54618;52.018;5.576;2023-04-03T13:04:51;1.33;;;0.40;;
67819;SDS011;54618;52.018;5.576;2023-04-03T13:07:23;1.70;;;0.60;;
67819;SDS011;54618;52.018;5.576;2023-04-03T13:09:57;2.08;;;0.40;;
67819;SDS011;54618;52.018;5.576;2023-04-03T13:12:24;0.80;;;0.40;;
67819;SDS011;54618;52.018;5.576;2023-04-03T13:14:54;3.05;;;0.40;;
67819;SDS011;54618;52.018;5.576;2023-04-03T13:17:21;2.33;;;0.40;;
67819;SDS011;54618;52.018;5.576;2023-04-03T13:19:47;1.25;;;0.40;;
67819;SDS011;54618;52.018;5.576;2023-04-03T13:24:44;2.30;;;0.50;;
67819;SDS011;54618;52.018;5.576;2023-04-03T13:27:14;0.60;;;0.30;;
67819;SDS011;54618;52.018;5.576;2023-04-03T13:29:40;3.13;;;0.73;;
67819;SDS011;54618;52.018;5.576;2023-04-03T13:32:06;3.53;;;0.40;;
67819;SDS011;54618;52.018;5.576;2023-04-03T13:34:42;2.55;;;0.63;;
67819;SDS011;54618;52.018;5.576;2023-04-03T13:37:22;2.63;;;0.30;;
67819;SDS011;54618;52.018;5.576;2023-04-03T13:40:23;1.17;;;0.35;;
67819;SDS011;54618;52.018;5.576;2023-04-03T13:42:42;1.05;;;0.40;;
67819;SDS011;54618;52.018;5.576;2023-04-03T13:45:24;2.30;;;0.50;;
67819;SDS011;54618;52.018;5.576;2023-04-03T13:47:54;3.03;;;0.40;;
67819;SDS011;54618;52.018;5.576;2023-04-03T13:50:54;1.00;;;0.40;;
67819;SDS011;54618;52.018;5.576;2023-04-03T13:53:30;1.75;;;0.30;;
67819;SDS011;54618;52.018;5.576;2023-04-03T13:58:30;1.80;;;0.40;;
67819;SDS011;54618;52.018;5.576;2023-04-03T14:01:06;0.77;;;0.40;;
67819;SDS011;54618;52.018;5.576;2023-04-03T14:03:43;1.30;;;0.50;;
67819;SDS011;54618;52.018;5.576;2023-04-03T14:06:12;1.65;;;0.30;;
67819;SDS011;54618;52.018;5.576;2023-04-03T14:08:39;1.40;;;0.40;;
67819;SDS011;54618;52.018;5.576;2023-04-03T14:11:05;2.33;;;0.50;;
67819;SDS011;54618;52.018;5.576;2023-04-03T14:13:34;1.35;;;0.50;;
67819;SDS011;54618;52.018;5.576;2023-04-03T14:15:59;1.75;;;0.38;;
67819;SDS011;54618;52.018;5.576;2023-04-03T14:18:25;0.93;;;0.40;;
67819;SDS011;54618;52.018;5.576;2023-04-03T14:20:52;0.70;;;0.40;;
67819;SDS011;54618;52.018;5.576;2023-04-03T14:23:17;1.27;;;0.50;;
67819;SDS011;54618;52.018;5.576;2023-04-03T14:25:43;1.90;;;0.38;;
67819;SDS011;54618;52.018;5.576;2023-04-03T14:28:19;1.33;;;0.50;;
67819;SDS011;54618;52.018;5.576;2023-04-03T14:30:47;1.83;;;0.40;;
67819;SDS011;54618;52.018;5.576;2023-04-03T14:33:15;1.42;;;0.60;;
67819;SDS011;54618;52.018;5.576;2023-04-03T14:35:44;1.13;;;0.40;;
67819;SDS011;54618;52.018;5.576;2023-04-03T14:38:24;1.95;;;0.50;;
67819;SDS011;54618;52.018;5.576;2023-04-03T14:40:52;1.77;;;0.35;;
67819;SDS011;54618;52.018;5.576;2023-04-03T14:43:19;1.98;;;0.52;;
67819;SDS011;54618;52.018;5.576;2023-04-03T14:45:45;3.20;;;0.60;;
67819;SDS011;54618;52.018;5.576;2023-04-03T14:48:19;1.52;;;0.50;;
67819;SDS011;54618;52.018;5.576;2023-04-03T14:50:47;1.33;;;0.40;;
67819;SDS011;54618;52.018;5.576;2023-04-03T14:53:14;2.65;;;0.47;;
67819;SDS011;54618;52.018;5.576;2023-04-03T14:55:42;2.72;;;0.50;;
67819;SDS011;54618;52.018;5.576;2023-04-03T14:58:13;2.58;;;1.13;;
67819;SDS011;54618;52.018;5.576;2023-04-03T15:00:40;6.47;;;1.80;;
67819;SDS011;54618;52.018;5.576;2023-04-03T15:03:06;3.85;;;1.75;;
67819;SDS011;54618;52.018;5.576;2023-04-03T15:05:34;3.78;;;1.48;;
67819;SDS011;54618;52.018;5.576;2023-04-03T15:08:02;5.50;;;1.38;;
67819;SDS011;54618;52.018;5.576;2023-04-03T15:10:28;3.45;;;1.40;;
67819;SDS011;54618;52.018;5.576;2023-04-03T15:12:55;4.15;;;1.35;;
67819;SDS011;54618;52.018;5.576;2023-04-03T15:15:21;3.35;;;1.50;;
67819;SDS011;54618;52.018;5.576;2023-04-03T15:17:51;5.18;;;2.17;;
67819;SDS011;54618;52.018;5.576;2023-04-03T15:20:24;3.53;;;2.00;;
67819;SDS011;54618;52.018;5.576;2023-04-03T15:22:52;4.53;;;2.28;;
67819;SDS011;54618;52.018;5.576;2023-04-03T15:25:17;5.95;;;2.38;;
67819;SDS011;54618;52.018;5.576;2023-04-03T15:27:43;5.55;;;3.22;;
67819;SDS011;54618;52.018;5.576;2023-04-03T15:30:11;5.55;;;1.92;;
67819;SDS011;54618;52.018;5.576;2023-04-03T15:32:40;6.57;;;3.20;;
67819;SDS011;54618;52.018;5.576;2023-04-03T15:35:05;5.53;;;3.40;;
67819;SDS011;54618;52.018;5.576;2023-04-03T15:37:31;4.68;;;2.85;;
67819;SDS011;54618;52.018;5.576;2023-04-03T15:39:57;6.90;;;2.65;;
67819;SDS011;54618;52.018;5.576;2023-04-03T15:42:23;5.88;;;2.97;;
67819;SDS011;54618;52.018;5.576;2023-04-03T15:44:48;5.07;;;2.63;;
67819;SDS011;54618;52.018;5.576;2023-04-03T15:47:14;6.25;;;2.50;;
67819;SDS011;54618;52.018;5.576;2023-04-03T15:49:40;3.97;;;2.65;;
67819;SDS011;54618;52.018;5.576;2023-04-03T15:52:06;5.22;;;2.47;;
67819;SDS011;54618;52.018;5.576;2023-04-03T15:54:31;5.78;;;2.70;;
67819;SDS011;54618;52.018;5.576;2023-04-03T15:56:57;5.72;;;2.38;;
67819;SDS011;54618;52.018;5.576;2023-04-03T15:59:22;6.90;;;2.72;;
67819;SDS011;54618;52.018;5.576;2023-04-03T16:01:48;5.50;;;2.67;;
67819;SDS011;54618;52.018;5.576;2023-04-03T16:04:15;6.07;;;2.50;;
67819;SDS011;54618;52.018;5.576;2023-04-03T16:06:41;5.40;;;2.13;;
67819;SDS011;54618;52.018;5.576;2023-04-03T16:09:08;5.00;;;2.10;;
67819;SDS011;54618;52.018;5.576;2023-04-03T16:11:35;5.85;;;2.08;;
67819;SDS011;54618;52.018;5.576;2023-04-03T16:14:02;4.80;;;2.28;;
67819;SDS011;54618;52.018;5.576;2023-04-03T16:16:27;3.58;;;1.60;;
67819;SDS011;54618;52.018;5.576;2023-04-03T16:18:53;6.78;;;2.30;;
67819;SDS011;54618;52.018;5.576;2023-04-03T16:21:20;5.10;;;2.35;;
67819;SDS011;54618;52.018;5.576;2023-04-03T16:23:47;3.80;;;1.75;;
67819;SDS011;54618;52.018;5.576;2023-04-03T16:26:13;6.30;;;2.00;;
67819;SDS011;54618;52.018;5.576;2023-04-03T16:28:39;5.30;;;2.13;;
67819;SDS011;54618;52.018;5.576;2023-04-03T16:31:05;6.38;;;2.08;;
67819;SDS011;54618;52.018;5.576;2023-04-03T16:33:32;4.32;;;1.70;;
67819;SDS011;54618;52.018;5.576;2023-04-03T16:35:57;4.20;;;1.70;;